Time;durP1;ratioP1;P1;durP2;ratioP2;P2;SDS_P1;SDS_P2;PMS_P1;PMS_P2;Temp;Humidity;BMP_temperature;BMP_pressure;BME280_temperature;BME280_humidity;BME280_pressure;Samples;Min_cycle;Max_cycle;Signal;HPM_P1;HPM_P2
2021/01/08 00:00:49;;;;;;;51.58;29.38;;;154.50;1971.20;;;;;;5095295;28;20458;-69
2021/01/08 00:03:14;;;;;;;54.88;28.95;;;154.50;1971.20;;;;;;5094991;28;20075;-69
2021/01/08 00:05:40;;;;;;;48.92;27.52;;;154.50;1971.20;;;;;;5095073;28;20032;-69
2021/01/08 00:08:06;;;;;;;46.30;26.83;;;154.50;1971.20;;;;;;5076921;28;20044;-69
2021/01/08 00:10:33;;;;;;;39.95;23.88;;;179.20;1971.20;;;;;;5095166;28;20032;-69
2021/01/08 00:12:59;;;;;;;39.03;23.85;;;179.20;1971.20;;;;;;5094884;28;20115;-70
2021/01/08 00:15:25;;;;;;;35.17;22.27;;;154.50;1971.20;;;;;;5094474;28;20435;-69
2021/01/08 00:17:51;;;;;;;40.25;22.70;;;154.50;1945.60;;;;;;5092954;28;20032;-69
2021/01/08 00:20:16;;;;;;;46.70;23.05;;;179.20;1971.20;;;;;;5093350;28;20028;-70
2021/01/08 00:22:44;;;;;;;41.97;23.88;;;179.20;1971.20;;;;;;5075010;28;20028;-69
2021/01/08 00:25:10;;;;;;;55.78;27.13;;;179.20;1971.20;;;;;;5093144;28;20020;-70
2021/01/08 00:27:37;;;;;;;48.45;27.23;;;179.20;1971.20;;;;;;5093061;28;20034;-70
2021/01/08 00:30:04;;;;;;;45.70;25.50;;;154.50;1945.60;;;;;;5092796;28;20466;-69
2021/01/08 00:32:30;;;;;;;43.47;24.73;;;154.50;1945.60;;;;;;5093011;28;20020;-69
2021/01/08 00:34:56;;;;;;;38.47;22.77;;;154.50;1971.20;;;;;;5093270;28;20048;-69
2021/01/08 00:37:24;;;;;;;37.05;21.67;;;154.50;1945.60;;;;;;5092938;28;20016;-69
2021/01/08 00:39:50;;;;;;;33.45;21.20;;;154.50;1945.60;;;;;;5093057;28;20107;-69
2021/01/08 00:42:16;;;;;;;30.40;19.90;;;154.50;1945.60;;;;;;5092929;28;20024;-70
2021/01/08 00:44:43;;;;;;;30.75;20.70;;;154.50;1945.60;;;;;;5092914;28;20106;-69
2021/01/08 00:47:09;;;;;;;32.15;20.23;;;154.50;1945.60;;;;;;5092735;28;20062;-69
2021/01/08 00:49:35;;;;;;;37.47;22.70;;;154.50;1945.60;;;;;;5093134;28;20016;-69
2021/01/08 00:52:01;;;;;;;38.58;21.95;;;154.50;1945.60;;;;;;5093097;28;20044;-69
2021/01/08 00:54:27;;;;;;;35.88;21.38;;;154.50;1945.60;;;;;;5089880;28;20426;-69
2021/01/08 00:56:52;;;;;;;32.88;21.52;;;154.50;1945.60;;;;;;5093190;28;20059;-69
2021/01/08 00:59:18;;;;;;;45.97;26.95;;;154.50;1945.60;;;;;;5093710;28;20465;-69
2021/01/08 01:01:44;;;;;;;40.95;24.73;;;154.50;1945.60;;;;;;5093815;28;20379;-69
2021/01/08 01:04:09;;;;;;;39.67;23.95;;;154.50;1945.60;;;;;;5094200;28;20053;-70
2021/01/08 01:06:35;;;;;;;41.30;25.58;;;154.50;1945.60;;;;;;5094236;28;20065;-70
2021/01/08 01:09:03;;;;;;;41.97;25.08;;;154.50;1945.60;;;;;;5092847;28;20099;-69
2021/01/08 01:11:29;;;;;;;35.67;22.65;;;154.50;1945.60;;;;;;5094075;28;20381;-70
2021/01/08 01:13:56;;;;;;;33.30;20.52;;;154.50;1945.60;;;;;;5075700;28;20366;-69
2021/01/08 01:16:27;;;;;;;31.83;20.67;;;154.50;1945.60;;;;;;5093975;28;20051;-70
2021/01/08 01:18:55;;;;;;;28.27;19.42;;;154.50;1971.20;;;;;;5093927;28;20020;-70
2021/01/08 01:21:21;;;;;;;30.23;19.73;;;154.50;1945.60;;;;;;5093880;28;20054;-69
2021/01/08 01:23:47;;;;;;;30.55;19.58;;;154.50;1945.60;;;;;;5093928;28;20035;-70
2021/01/08 01:26:13;;;;;;;26.67;18.48;;;154.50;1945.60;;;;;;5093893;28;20459;-70
2021/01/08 01:28:39;;;;;;;26.40;17.30;;;154.50;1945.60;;;;;;5093895;28;20024;-70
2021/01/08 01:31:05;;;;;;;30.63;19.23;;;154.40;1945.60;;;;;;5093690;28;20028;-70
2021/01/08 01:33:31;;;;;;;27.73;17.98;;;154.50;1945.60;;;;;;5093729;28;20050;-70
2021/01/08 01:35:57;;;;;;;28.05;18.17;;;154.50;1945.60;;;;;;5093768;28;20103;-70
2021/01/08 01:38:23;;;;;;;26.85;18.25;;;154.50;1945.60;;;;;;5093877;28;20020;-70
2021/01/08 01:40:49;;;;;;;26.88;19.10;;;154.40;1945.60;;;;;;5093760;28;20036;-70
2021/01/08 01:43:16;;;;;;;28.38;19.10;;;154.40;1945.60;;;;;;5093479;28;20082;-69
2021/01/08 01:45:42;;;;;;;28.95;18.80;;;154.50;1945.60;;;;;;5093732;28;20028;-69
2021/01/08 01:48:12;;;;;;;28.67;18.27;;;154.40;1945.60;;;;;;5093365;28;20103;-69
2021/01/08 01:50:38;;;;;;;27.45;19.17;;;154.40;1945.60;;;;;;5093468;28;20512;-69
2021/01/08 01:53:04;;;;;;;26.02;17.45;;;154.40;1945.60;;;;;;5093481;28;20016;-70
2021/01/08 01:55:30;;;;;;;24.25;16.50;;;154.40;1945.60;;;;;;5093442;28;20477;-70
2021/01/08 01:57:57;;;;;;;24.52;17.38;;;154.30;1945.60;;;;;;5093613;28;20067;-70
2021/01/08 02:00:23;;;;;;;21.63;15.73;;;154.40;1945.60;;;;;;5093665;28;20449;-70
2021/01/08 02:02:52;;;;;;;27.60;17.15;;;154.40;1945.60;;;;;;5093229;28;20088;-70
2021/01/08 02:05:20;;;;;;;19.77;15.38;;;154.30;1945.60;;;;;;5093592;28;20017;-70
2021/01/08 02:08:02;;;;;;;21.92;16.17;;;154.30;1945.60;;;;;;5093516;28;20020;-70
2021/01/08 02:10:36;;;;;;;24.63;17.13;;;154.30;1945.60;;;;;;5093564;28;20016;-70
2021/01/08 02:13:02;;;;;;;27.23;16.17;;;154.40;1945.60;;;;;;5093843;28;20024;-69
2021/01/08 02:15:29;;;;;;;25.23;17.40;;;154.30;1971.20;;;;;;5093410;28;20055;-70
2021/01/08 02:17:55;;;;;;;24.27;17.13;;;154.40;1945.60;;;;;;5093353;28;20355;-70
2021/01/08 02:20:22;;;;;;;24.70;16.98;;;154.40;1971.20;;;;;;5095187;28;20047;-70
2021/01/08 02:22:59;;;;;;;24.52;17.25;;;154.40;1945.60;;;;;;5097026;28;20099;-69
2021/01/08 02:25:29;;;;;;;25.50;17.17;;;154.30;1971.20;;;;;;5097084;28;20039;-72
2021/01/08 02:28:04;;;;;;;26.70;17.90;;;154.30;1945.60;;;;;;5097169;28;20370;-69
2021/01/08 02:30:33;;;;;;;;;;;154.30;1945.60;;;;;;5097496;28;20123;-69
2021/01/08 02:33:00;;;;;;;23.58;17.25;;;154.30;1971.20;;;;;;5096829;28;19904;-69
2021/01/08 02:35:26;;;;;;;27.30;17.88;;;154.30;1971.20;;;;;;5096617;28;20036;-69
2021/01/08 02:37:55;;;;;;;27.80;17.67;;;154.30;1945.60;;;;;;5096345;28;20024;-69
2021/01/08 02:40:21;;;;;;;26.92;18.20;;;154.30;1971.20;;;;;;5096914;28;20020;-71
2021/01/08 02:42:48;;;;;;;28.90;19.40;;;154.40;1945.60;;;;;;5096672;28;20035;-69
2021/01/08 02:45:15;;;;;;;29.70;20.05;;;154.30;1945.60;;;;;;5096688;28;20044;-69
2021/01/08 02:47:41;;;;;;;29.20;19.80;;;154.40;1945.60;;;;;;5096534;28;20522;-70
2021/01/08 02:50:08;;;;;;;26.95;18.40;;;154.40;1945.60;;;;;;5096414;28;20106;-69
2021/01/08 02:52:37;;;;;;;28.20;19.20;;;154.40;1945.60;;;;;;5096545;28;20024;-69
2021/01/08 02:55:06;;;;;;;27.05;19.35;;;154.40;1945.60;;;;;;5096475;28;20028;-73
2021/01/08 02:57:32;;;;;;;27.70;19.30;;;154.30;1945.60;;;;;;5096863;28;20020;-69
2021/01/08 02:59:59;;;;;;;29.05;19.48;;;154.30;1945.60;;;;;;5096375;28;20461;-69
2021/01/08 03:02:24;;;;;;;29.48;20.40;;;154.30;1945.60;;;;;;5096051;28;20101;-68
2021/01/08 03:04:51;;;;;;;29.52;19.55;;;154.30;1945.60;;;;;;5095994;28;20130;-70
2021/01/08 03:07:20;;;;;;;31.52;21.63;;;154.30;1945.60;;;;;;5096476;28;20020;-68
2021/01/08 03:09:46;;;;;;;31.17;20.77;;;154.30;1945.60;;;;;;5096355;28;20023;-68
2021/01/08 03:12:14;;;;;;;30.70;19.77;;;154.30;1945.60;;;;;;5096181;28;20024;-68
2021/01/08 03:14:43;;;;;;;33.25;21.08;;;154.30;1945.60;;;;;;5096007;28;20027;-70
2021/01/08 03:17:08;;;;;;;32.42;20.52;;;154.30;1971.20;;;;;;5095950;28;20024;-69
2021/01/08 03:19:34;;;;;;;32.22;21.67;;;154.30;1945.60;;;;;;5095880;28;20028;-71
2021/01/08 03:22:00;;;;;;;30.83;20.60;;;154.30;1945.60;;;;;;5096129;28;20097;-68
2021/01/08 03:24:25;;;;;;;27.40;19.45;;;154.30;1945.60;;;;;;5095887;28;20352;-69
2021/01/08 03:26:51;;;;;;;31.15;20.15;;;154.30;1945.60;;;;;;5096053;28;20031;-71
2021/01/08 03:29:17;;;;;;;30.27;19.60;;;154.30;1945.60;;;;;;5095849;28;20373;-71
2021/01/08 03:31:42;;;;;;;28.58;18.45;;;154.30;1945.60;;;;;;5094967;28;20032;-71
2021/01/08 03:34:08;;;;;;;30.75;19.88;;;154.30;1945.60;;;;;;5095502;28;20107;-69
2021/01/08 03:36:34;;;;;;;31.25;19.90;;;154.40;1971.20;;;;;;5095883;28;20107;-68
2021/01/08 03:38:59;;;;;;;27.48;19.25;;;154.30;1945.60;;;;;;5095823;28;20477;-73
2021/01/08 03:41:25;;;;;;;31.45;20.10;;;154.30;1945.60;;;;;;5095941;28;20032;-70
2021/01/08 03:43:51;;;;;;;33.58;20.35;;;154.30;1971.20;;;;;;5095659;28;20029;-73
2021/01/08 03:46:18;;;;;;;31.58;21.08;;;154.30;1971.20;;;;;;5095849;28;20358;-72
2021/01/08 03:48:43;;;;;;;29.02;18.98;;;154.30;1945.60;;;;;;5095375;28;20021;-72
2021/01/08 03:51:09;;;;;;;30.35;20.65;;;154.30;1945.60;;;;;;5095542;28;20024;-71
2021/01/08 03:53:35;;;;;;;26.58;19.25;;;154.40;1971.20;;;;;;5095522;28;20051;-69
2021/01/08 03:56:00;;;;;;;27.85;18.80;;;154.30;1945.60;;;;;;5095176;28;20032;-70
2021/01/08 03:58:26;;;;;;;28.42;18.30;;;154.30;1945.60;;;;;;5077376;28;20058;-69
2021/01/08 04:00:52;;;;;;;36.35;19.92;;;154.30;1971.20;;;;;;5095217;28;20048;-70
2021/01/08 04:03:17;;;;;;;34.22;19.67;;;154.30;1945.60;;;;;;5094821;28;20093;-69
2021/01/08 04:05:43;;;;;;;31.98;20.63;;;154.30;1971.20;;;;;;5094979;28;20107;-69
2021/01/08 04:08:09;;;;;;;35.45;20.33;;;154.30;1971.20;;;;;;5095052;28;20020;-69
2021/01/08 04:10:35;;;;;;;31.70;18.30;;;154.40;1971.20;;;;;;5095001;28;20028;-69
2021/01/08 04:13:02;;;;;;;35.80;19.50;;;154.40;1971.20;;;;;;5094983;28;20020;-69
2021/01/08 04:15:28;;;;;;;29.80;19.38;;;154.40;1945.60;;;;;;5094875;28;20047;-69
2021/01/08 04:17:54;;;;;;;28.77;18.30;;;154.40;1971.20;;;;;;5094887;28;20024;-69
2021/01/08 04:20:19;;;;;;;27.05;18.85;;;154.40;1971.20;;;;;;5094899;28;20028;-69
2021/01/08 04:22:45;;;;;;;30.88;18.48;;;154.40;1971.20;;;;;;5094773;28;20032;-69
2021/01/08 04:25:11;;;;;;;33.08;19.13;;;154.40;1971.20;;;;;;5094784;28;20381;-69
2021/01/08 04:27:37;;;;;;;30.02;20.45;;;154.40;1971.20;;;;;;5095073;28;20024;-71
2021/01/08 04:30:05;;;;;;;30.15;18.38;;;154.40;1971.20;;;;;;5094771;28;20035;-70
2021/01/08 04:32:30;;;;;;;28.00;18.42;;;154.50;1945.60;;;;;;5094622;28;20032;-69
2021/01/08 04:34:56;;;;;;;25.42;18.33;;;154.40;1971.20;;;;;;5094190;28;20070;-72
2021/01/08 04:37:22;;;;;;;23.55;17.98;;;154.40;1971.20;;;;;;5094621;28;20465;-72
2021/01/08 04:39:48;;;;;;;27.42;18.70;;;154.40;1971.20;;;;;;5094646;28;20462;-69
2021/01/08 04:42:15;;;;;;;28.92;17.80;;;154.40;1971.20;;;;;;5094296;28;20446;-69
2021/01/08 04:44:42;;;;;;;28.83;19.45;;;154.40;1971.20;;;;;;5094319;28;20070;-71
2021/01/08 04:47:11;;;;;;;25.63;17.70;;;154.40;1971.20;;;;;;5094462;28;20020;-69
2021/01/08 04:49:38;;;;;;;27.83;18.17;;;154.50;1971.20;;;;;;5094229;28;20106;-71
2021/01/08 04:52:10;;;;;;;26.58;19.08;;;154.40;1971.20;;;;;;5076253;28;20551;-70
2021/01/08 04:54:36;;;;;;;28.48;18.77;;;154.40;1945.60;;;;;;5094321;28;20441;-73
2021/01/08 04:57:03;;;;;;;26.10;17.65;;;154.50;1945.60;;;;;;5094239;28;20363;-69
2021/01/08 04:59:30;;;;;;;30.00;19.58;;;154.50;1971.20;;;;;;5094223;28;20032;-72
2021/01/08 05:01:56;;;;;;;31.20;18.75;;;154.50;1945.60;;;;;;5093990;28;20517;-69
2021/01/08 05:04:22;;;;;;;28.38;18.77;;;154.50;1971.20;;;;;;5093869;28;20027;-70
2021/01/08 05:06:48;;;;;;;24.10;18.25;;;154.50;1945.60;;;;;;5093900;28;20418;-69
2021/01/08 05:09:14;;;;;;;26.45;18.35;;;154.50;1945.60;;;;;;5094194;28;20027;-70
2021/01/08 05:11:40;;;;;;;25.90;17.52;;;154.40;1945.60;;;;;;5094005;28;20540;-69
2021/01/08 05:14:09;;;;;;;26.65;18.08;;;154.40;1945.60;;;;;;5093950;28;20258;-70
2021/01/08 05:16:37;;;;;;;24.05;16.73;;;154.40;1945.60;;;;;;5076095;28;20047;-70
2021/01/08 05:19:04;;;;;;;23.30;17.20;;;154.40;1945.60;;;;;;5093785;28;20515;-70
2021/01/08 05:21:31;;;;;;;25.13;17.02;;;154.40;1945.60;;;;;;5093952;28;20032;-70
2021/01/08 05:23:59;;;;;;;31.70;19.95;;;154.40;1945.60;;;;;;5075684;28;20038;-70
2021/01/08 05:26:26;;;;;;;41.35;23.50;;;154.40;1945.60;;;;;;5093897;28;20020;-70
2021/01/08 05:28:53;;;;;;;38.42;22.85;;;154.40;1945.60;;;;;;5093784;28;20103;-72
2021/01/08 05:31:20;;;;;;;36.03;21.48;;;154.40;1945.60;;;;;;5094049;28;20366;-69
2021/01/08 05:33:48;;;;;;;35.63;21.85;;;154.40;1945.60;;;;;;5093562;28;20107;-71
2021/01/08 05:36:15;;;;;;;31.08;20.35;;;154.40;1945.60;;;;;;5093625;28;20062;-70
2021/01/08 05:38:43;;;;;;;40.50;23.75;;;154.40;1945.60;;;;;;5093914;28;20498;-70
2021/01/08 05:41:10;;;;;;;42.85;24.98;;;154.40;1945.60;;;;;;5093677;28;20032;-68
2021/01/08 05:43:42;;;;;;;34.15;22.40;;;154.40;1945.60;;;;;;5093607;28;20024;-70
2021/01/08 05:46:38;;;;;;;29.42;19.30;;;154.40;1945.60;;;;;;5093596;28;20023;-69
2021/01/08 05:49:05;;;;;;;27.80;19.20;;;154.40;1945.60;;;;;;5092864;28;20032;-69
2021/01/08 05:51:38;;;;;;;27.95;19.42;;;154.40;1945.60;;;;;;5093488;28;20024;-69
2021/01/08 05:54:05;;;;;;;23.48;16.77;;;154.40;1945.60;;;;;;5093569;28;20044;-71
2021/01/08 05:56:36;;;;;;;28.23;18.67;;;154.40;1945.60;;;;;;5097053;28;20500;-72
2021/01/08 05:59:10;;;;;;;23.77;17.85;;;154.40;1945.60;;;;;;5097400;28;20594;-70
2021/01/08 06:01:37;;;;;;;;;;;154.40;1945.60;;;;;;5097926;28;20058;-72
2021/01/08 06:04:03;;;;;;;27.67;18.10;;;154.40;1971.20;;;;;;5097268;28;20349;-72
2021/01/08 06:06:42;;;;;;;34.00;20.65;;;154.40;1971.20;;;;;;5097559;28;20028;-71
2021/01/08 06:09:14;;;;;;;30.75;19.40;;;154.30;1971.20;;;;;;5097830;28;20365;-69
2021/01/08 06:11:43;;;;;;;34.05;21.65;;;154.40;1971.20;;;;;;5097312;28;20024;-71
2021/01/08 06:14:11;;;;;;;33.65;22.92;;;154.30;1971.20;;;;;;5097385;28;20449;-70
2021/01/08 06:16:44;;;;;;;34.30;21.42;;;154.40;1971.20;;;;;;5097412;28;20050;-72
2021/01/08 06:19:15;;;;;;;35.25;21.05;;;154.30;1971.20;;;;;;5097377;28;20025;-72
2021/01/08 06:21:46;;;;;;;30.52;20.40;;;154.30;1971.20;;;;;;5097115;28;20077;-71
2021/01/08 06:24:22;;;;;;;36.10;24.63;;;154.40;1971.20;;;;;;5097072;28;20035;-71
2021/01/08 06:26:49;;;;;;;37.15;26.90;;;154.40;1971.20;;;;;;5097172;28;20024;-71
2021/01/08 06:29:26;;;;;;;36.83;27.27;;;154.40;1971.20;;;;;;5078845;28;20024;-69
2021/01/08 06:31:53;;;;;;;39.65;26.13;;;154.40;1971.20;;;;;;5097113;28;20021;-70
2021/01/08 06:34:26;;;;;;;40.55;24.73;;;154.30;1971.20;;;;;;5096250;28;20020;-75
2021/01/08 06:37:09;;;;;;;42.83;24.83;;;154.30;1971.20;;;;;;5097063;28;20032;-72
2021/01/08 06:39:40;;;;;;;36.33;23.80;;;154.30;1971.20;;;;;;5077685;28;20040;-72
2021/01/08 06:42:07;;;;;;;31.77;22.02;;;154.30;1971.20;;;;;;5096720;28;20470;-73
2021/01/08 06:44:34;;;;;;;28.92;21.50;;;154.40;1971.20;;;;;;5096837;28;20058;-72
2021/01/08 06:47:03;;;;;;;29.95;19.75;;;154.40;1971.20;;;;;;5096862;28;20024;-71
2021/01/08 06:49:36;;;;;;;25.45;19.02;;;154.40;1971.20;;;;;;5096418;28;20362;-71
2021/01/08 06:52:03;;;;;;;26.80;19.10;;;154.40;1971.20;;;;;;5096600;28;20050;-71
2021/01/08 06:54:29;;;;;;;32.03;21.40;;;154.40;1971.20;;;;;;5096356;28;20020;-72
2021/01/08 06:57:00;;;;;;;37.33;23.60;;;154.40;1971.20;;;;;;5096457;28;20157;-72
2021/01/08 06:59:31;;;;;;;42.08;25.90;;;154.40;1971.20;;;;;;5096537;28;20355;-72
2021/01/08 07:02:09;;;;;;;45.33;31.08;;;154.40;1971.20;;;;;;5096728;28;20043;-70
2021/01/08 07:04:38;;;;;;;38.45;26.20;;;154.40;1971.20;;;;;;5096432;28;20403;-72
2021/01/08 07:07:05;;;;;;;35.53;24.27;;;154.40;1971.20;;;;;;5076733;28;20024;-70
2021/01/08 07:09:36;;;;;;;34.95;23.02;;;154.40;1971.20;;;;;;5096307;28;20043;-69
2021/01/08 07:12:04;;;;;;;29.88;21.52;;;154.40;1971.20;;;;;;5097074;28;20107;-70
2021/01/08 07:14:31;;;;;;;32.70;22.58;;;154.40;1971.20;;;;;;5095008;28;20032;-72
2021/01/08 07:16:58;;;;;;;41.05;23.50;;;154.50;1971.20;;;;;;5095913;28;20036;-73
2021/01/08 07:19:28;;;;;;;30.42;21.73;;;154.40;1971.20;;;;;;5085381;28;20021;-68
2021/01/08 07:22:02;;;;;;;34.90;22.67;;;154.40;1971.20;;;;;;5095962;28;20039;-73
2021/01/08 07:24:31;;;;;;;38.03;24.73;;;154.40;1971.20;;;;;;5095478;28;20499;-70
2021/01/08 07:27:15;;;;;;;35.67;24.38;;;154.40;1945.60;;;;;;5095888;28;20089;-73
2021/01/08 07:29:48;;;;;;;38.35;24.20;;;154.40;1971.20;;;;;;5096135;28;20040;-73
2021/01/08 07:32:13;;;;;;;38.30;27.10;;;154.40;1971.20;;;;;;5095817;28;20434;-69
2021/01/08 07:34:39;;;;;;;34.17;24.70;;;154.40;1971.20;;;;;;5095750;28;20051;-68
2021/01/08 07:37:05;;;;;;;34.80;23.45;;;154.40;1971.20;;;;;;5095743;28;20028;-69
2021/01/08 07:39:40;;;;;;;33.08;22.45;;;154.40;1971.20;;;;;;5095897;28;20081;-73
2021/01/08 07:42:34;;;;;;;38.78;23.38;;;154.40;1971.20;;;;;;5077623;28;20024;-70
2021/01/08 07:45:01;;;;;;;51.08;27.17;;;154.40;1971.20;;;;;;5095718;28;20051;-73
2021/01/08 07:47:29;;;;;;;44.95;25.85;;;154.40;1971.20;;;;;;5095350;28;20020;-76
2021/01/08 07:50:09;;;;;;;46.53;26.85;;;154.40;1971.20;;;;;;5095259;28;20024;-70
2021/01/08 07:52:42;;;;;;;58.45;31.20;;;154.40;1996.80;;;;;;5095182;28;20024;-72
2021/01/08 07:55:10;;;;;;;64.32;30.40;;;154.50;1971.20;;;;;;5095403;28;20039;-70
2021/01/08 07:58:03;;;;;;;82.63;35.83;;;154.50;1996.80;;;;;;5095238;28;20020;-70
2021/01/08 08:00:31;;;;;;;74.90;32.42;;;154.50;1971.20;;;;;;5013188;28;20117;-70
2021/01/08 08:02:58;;;;;;;61.72;31.05;;;179.20;2073.60;;;;;;5013001;28;20132;-72
2021/01/08 08:05:31;;;;;;;103.80;46.45;;;154.50;1971.20;;;;;;5013153;28;20073;-69
2021/01/08 08:08:01;;;;;;;72.30;40.40;;;154.50;1996.80;;;;;;5012800;28;20144;-74
2021/01/08 08:10:30;;;;;;;140.63;79.55;;;154.50;1996.80;;;;;;5013186;28;20050;-73
2021/01/08 08:12:56;;;;;;;169.70;101.28;;;154.40;1996.80;;;;;;5013148;28;20026;-74
2021/01/08 08:15:23;;;;;;;147.30;81.32;;;154.50;2048.00;;;;;;5013073;28;20391;-73
2021/01/08 08:17:49;;;;;;;124.97;67.32;;;154.50;1996.80;;;;;;5012487;28;20026;-73
2021/01/08 08:20:25;;;;;;;156.38;90.00;;;154.50;1996.80;;;;;;5012773;28;20057;-71
2021/01/08 08:22:54;;;;;;;207.20;112.32;;;154.40;1996.80;;;;;;5012826;28;20137;-70
2021/01/08 08:25:25;;;;;;;164.60;91.25;;;154.40;1996.80;;;;;;5012865;28;20068;-72
2021/01/08 08:28:00;;;;;;;127.10;71.75;;;154.30;1996.80;;;;;;5012897;28;20130;-70
2021/01/08 08:30:27;;;;;;;95.80;50.92;;;154.30;1996.80;;;;;;5012776;28;20038;-78
2021/01/08 08:32:54;;;;;;;91.97;47.65;;;154.50;2073.60;;;;;;5013043;28;20464;-72
2021/01/08 08:35:20;;;;;;;82.55;45.88;;;154.40;2022.40;;;;;;5012525;28;20033;-73
2021/01/08 08:37:53;;;;;;;71.30;42.22;;;154.40;2022.40;;;;;;5041502;28;20055;-73
2021/01/08 08:40:29;;;;;;;68.82;42.00;;;154.40;2022.40;;;;;;5093509;28;20024;-70
2021/01/08 08:42:56;;;;;;;78.63;42.33;;;154.40;2022.40;;;;;;5092923;28;20031;-73
2021/01/08 08:45:24;;;;;;;66.38;40.42;;;154.40;2048.00;;;;;;5093197;28;20020;-73
2021/01/08 08:47:55;;;;;;;68.78;41.25;;;154.50;2022.40;;;;;;5093177;28;20035;-72
2021/01/08 08:50:22;;;;;;;62.25;39.38;;;154.50;2022.40;;;;;;5093484;28;20027;-72
2021/01/08 08:52:48;;;;;;;68.55;42.35;;;154.50;2048.00;;;;;;5092549;28;20028;-72
2021/01/08 08:55:33;;;;;;;66.13;42.95;;;154.40;2022.40;;;;;;5093282;28;20599;-73
2021/01/08 08:58:25;;;;;;;76.07;46.17;;;154.40;2048.00;;;;;;5092720;28;20027;-72
2021/01/08 09:00:51;;;;;;;92.45;53.35;;;154.50;2022.40;;;;;;5089353;28;20031;-71
2021/01/08 09:03:18;;;;;;;81.25;48.17;;;154.50;2048.00;;;;;;5088676;28;20052;-71
2021/01/08 09:05:44;;;;;;;74.80;45.38;;;154.50;2022.40;;;;;;5089350;28;20031;-69
2021/01/08 09:08:24;;;;;;;63.92;39.55;;;154.40;2022.40;;;;;;5074396;28;20050;-70
2021/01/08 09:10:54;;;;;;;59.70;38.55;;;154.40;1996.80;;;;;;5092983;28;20060;-70
2021/01/08 09:13:31;;;;;;;59.17;38.38;;;154.40;2022.40;;;;;;5092432;28;20078;-70
2021/01/08 09:16:06;;;;;;;61.72;39.95;;;154.40;1996.80;;;;;;5089075;28;20051;-70
2021/01/08 09:18:52;;;;;;;60.10;38.05;;;154.40;1996.80;;;;;;5074123;28;20032;-69
2021/01/08 09:21:24;;;;;;;67.90;42.95;;;154.40;1996.80;;;;;;5093003;28;20115;-69
2021/01/08 09:23:54;;;;;;;62.13;39.88;;;154.40;1996.80;;;;;;5091922;28;20016;-69
2021/01/08 09:26:21;;;;;;;73.50;42.90;;;154.30;2022.40;;;;;;5092747;28;20016;-69
2021/01/08 09:28:52;;;;;;;73.82;41.17;;;154.30;2022.40;;;;;;5092179;28;20036;-69
2021/01/08 09:31:19;;;;;;;75.30;40.50;;;154.30;2022.40;;;;;;5091472;28;20416;-70
2021/01/08 09:33:56;;;;;;;68.20;39.63;;;154.40;2022.40;;;;;;5091551;28;20077;-70
2021/01/08 09:36:35;;;;;;;71.10;42.15;;;154.30;2022.40;;;;;;5092694;28;20040;-69
2021/01/08 09:39:09;;;;;;;71.18;42.92;;;154.30;2022.40;;;;;;5092171;28;20012;-74
2021/01/08 09:41:40;;;;;;;74.65;45.05;;;154.40;2022.40;;;;;;5092573;28;20024;-70
2021/01/08 09:44:11;;;;;;;72.47;43.85;;;154.30;2048.00;;;;;;5092564;28;20024;-69
2021/01/08 09:46:54;;;;;;;68.82;43.67;;;154.40;2022.40;;;;;;5092204;28;20115;-71
2021/01/08 09:49:20;;;;;;;68.70;39.90;;;154.40;2048.00;;;;;;5074550;28;20046;-72
2021/01/08 09:51:45;;;;;;;59.63;39.40;;;154.40;2048.00;;;;;;5092621;28;20525;-71
2021/01/08 09:54:11;;;;;;;55.15;37.58;;;154.50;2048.00;;;;;;5092130;28;20034;-71
2021/01/08 09:56:37;;;;;;;58.20;37.20;;;154.50;2073.60;;;;;;5092409;28;20115;-71
2021/01/08 09:59:14;;;;;;;63.17;39.15;;;179.20;2048.00;;;;;;5092490;28;20016;-71
2021/01/08 10:01:57;;;;;;;69.93;42.80;;;154.50;2073.60;;;;;;5073325;28;20036;-71
2021/01/08 10:04:34;;;;;;;72.07;44.22;;;179.20;2048.00;;;;;;5092529;28;20044;-70
2021/01/08 10:07:06;;;;;;;72.30;43.55;;;179.20;2073.60;;;;;;5092267;28;20024;-70
2021/01/08 10:09:50;;;;;;;71.88;42.70;;;179.30;2073.60;;;;;;5091973;28;20020;-71
2021/01/08 10:12:17;;;;;;;66.55;41.08;;;179.30;2073.60;;;;;;5092409;28;20036;-71
2021/01/08 10:14:44;;;;;;;75.63;45.67;;;179.30;2073.60;;;;;;5087374;28;20039;-71
2021/01/08 10:17:11;;;;;;;76.93;48.50;;;179.40;2073.60;;;;;;5089891;28;20032;-70
2021/01/08 10:19:42;;;;;;;70.85;45.60;;;179.40;2073.60;;;;;;5089402;28;20366;-70
2021/01/08 10:22:08;;;;;;;80.90;49.30;;;179.40;2073.60;;;;;;5092233;28;20070;-70
2021/01/08 10:24:34;;;;;;;83.80;52.78;;;179.50;2073.60;;;;;;5090921;28;20115;-71
2021/01/08 10:27:00;;;;;;;81.85;49.88;;;179.50;2073.60;;;;;;5090743;28;20035;-71
2021/01/08 10:29:38;;;;;;;84.05;48.53;;;179.50;2073.60;;;;;;5092508;28;20107;-74
2021/01/08 10:32:13;;;;;;;77.53;45.75;;;179.50;2073.60;;;;;;5091107;28;20028;-71
2021/01/08 10:34:42;;;;;;;77.50;46.00;;;179.60;2073.60;;;;;;5091698;28;20031;-74
2021/01/08 10:37:18;;;;;;;74.68;45.90;;;179.60;2073.60;;;;;;5092198;28;20028;-72
2021/01/08 10:39:45;;;;;;;81.55;46.08;;;179.60;2073.60;;;;;;5090582;28;20051;-70
2021/01/08 10:42:11;;;;;;;101.43;53.33;;;179.70;2073.60;;;;;;5094355;28;20028;-73
2021/01/08 10:44:37;;;;;;;99.32;55.38;;;179.70;2073.60;;;;;;5095361;28;20030;-74
2021/01/08 10:47:04;;;;;;;104.15;59.55;;;179.80;2073.60;;;;;;5095529;28;20099;-68
2021/01/08 10:49:30;;;;;;;93.72;52.53;;;204.80;2252.80;;;;;;5094370;28;20065;-69
2021/01/08 10:51:55;;;;;;;76.38;45.55;;;205.30;2252.80;;;;;;5095431;28;20028;-75
2021/01/08 10:54:21;;;;;;;72.28;42.75;;;205.40;2073.60;;;;;;5094628;28;20024;-73
2021/01/08 10:56:47;;;;;;;76.03;43.88;;;205.30;2022.40;;;;;;5095003;28;20500;-71
2021/01/08 10:59:13;;;;;;;72.85;42.45;;;205.20;1996.80;;;;;;5094810;28;20479;-73
2021/01/08 11:01:43;;;;;;;74.07;42.42;;;205.10;2022.40;;;;;;5094569;28;20084;-70
2021/01/08 11:04:09;;;;;;;70.50;44.53;;;205.10;2022.40;;;;;;5077122;28;20032;-74
2021/01/08 11:06:38;;;;;;;68.15;41.22;;;205.10;1996.80;;;;;;5095123;28;20031;-72
2021/01/08 11:09:05;;;;;;;68.80;42.20;;;205.10;2022.40;;;;;;5072072;28;20378;-72
2021/01/08 11:11:40;;;;;;;61.90;39.15;;;205.00;1996.80;;;;;;5075160;28;20021;-72
2021/01/08 11:14:06;;;;;;;77.45;48.58;;;205.00;1996.80;;;;;;5070091;28;20024;-72
2021/01/08 11:16:32;;;;;;;78.07;49.03;;;205.00;2022.40;;;;;;5074769;28;20094;-73
2021/01/08 11:18:57;;;;;;;92.07;58.65;;;204.90;2022.40;;;;;;5074879;28;20024;-73
2021/01/08 11:21:23;;;;;;;89.57;55.70;;;204.90;2022.40;;;;;;5079069;28;20031;-71
2021/01/08 11:23:49;;;;;;;88.68;55.00;;;204.90;2022.40;;;;;;5092985;28;20024;-72
2021/01/08 11:26:25;;;;;;;91.35;55.50;;;204.90;2022.40;;;;;;5094029;28;20047;-72
2021/01/08 11:28:51;;;;;;;112.55;64.72;;;204.90;2022.40;;;;;;5094268;28;20043;-72
2021/01/08 11:31:17;;;;;;;92.78;56.13;;;204.90;2022.40;;;;;;5091439;28;20115;-73
2021/01/08 11:33:46;;;;;;;98.55;54.45;;;204.90;2048.00;;;;;;5092284;28;20034;-72
2021/01/08 11:36:12;;;;;;;91.07;53.28;;;204.90;2048.00;;;;;;5090894;28;20525;-71
2021/01/08 11:38:39;;;;;;;88.75;54.40;;;204.90;2048.00;;;;;;5092780;28;20489;-79
2021/01/08 11:41:05;;;;;;;98.13;56.95;;;204.90;2048.00;;;;;;5092345;28;20036;-72
2021/01/08 11:43:30;;;;;;;90.40;58.65;;;204.90;2048.00;;;;;;5092269;28;20027;-72
2021/01/08 11:45:56;;;;;;;89.65;57.67;;;205.00;2048.00;;;;;;5091702;28;20016;-72
2021/01/08 11:48:22;;;;;;;87.43;54.80;;;205.00;2048.00;;;;;;5091509;28;20028;-72
2021/01/08 11:50:48;;;;;;;86.28;58.60;;;204.90;2022.40;;;;;;5073464;28;20111;-70
2021/01/08 11:53:13;;;;;;;85.75;55.30;;;204.90;2022.40;;;;;;5090338;28;20077;-71
2021/01/08 11:55:39;;;;;;;88.22;56.28;;;205.00;2048.00;;;;;;5091385;28;20028;-69
2021/01/08 11:58:05;;;;;;;100.30;60.83;;;205.00;2048.00;;;;;;5091772;28;20020;-71
2021/01/08 12:00:30;;;;;;;105.93;63.15;;;205.00;2048.00;;;;;;5092347;28;20032;-69
2021/01/08 12:02:56;;;;;;;110.95;62.63;;;205.00;2048.00;;;;;;5093350;28;20309;-70
2021/01/08 12:05:24;;;;;;;103.65;59.75;;;205.00;2048.00;;;;;;5093326;28;20047;-75